Time;durP1;ratioP1;P1;durP2;ratioP2;P2;SDS_P1;SDS_P2;PMS_P1;PMS_P2;Temp;Humidity;BMP_temperature;BMP_pressure;BME280_temperature;BME280_humidity;BME280_pressure;Samples;Min_cycle;Max_cycle;Signal;HPM_P1;HPM_P2
2022/08/17 00:01:03;;;;;;;5.57;3.80;;;;;;;;;;4389928;32;20080;-67
2022/08/17 00:03:37;;;;;;;8.93;3.37;;;;;;;;;;4377209;32;20123;-68
2022/08/17 00:06:27;;;;;;;8.07;3.60;;;;;;;;;;4387553;32;20082;-67
2022/08/17 00:08:57;;;;;;;8.20;3.83;;;;;;;;;;4354632;32;20161;-67
2022/08/17 00:11:27;;;;;;;7.03;4.03;;;;;;;;;;4366880;32;20088;-68
2022/08/17 00:14:00;;;;;;;6.43;3.60;;;;;;;;;;4380023;32;20062;-66
2022/08/17 00:16:36;;;;;;;7.97;3.95;;;;;;;;;;4366953;32;20155;-67
2022/08/17 00:19:07;;;;;;;8.18;3.90;;;;;;;;;;4367308;32;20078;-68
2022/08/17 00:21:35;;;;;;;6.60;3.90;;;;;;;;;;4393128;32;20092;-67
2022/08/17 00:24:01;;;;;;;5.97;3.90;;;;;;;;;;4379501;32;20086;-67
2022/08/17 00:26:29;;;;;;;6.18;3.85;;;;;;;;;;4378877;32;20093;-68
2022/08/17 00:28:56;;;;;;;7.47;3.83;;;;;;;;;;4393231;32;20149;-67
2022/08/17 00:31:22;;;;;;;6.90;3.90;;;;;;;;;;4393544;32;20101;-68
2022/08/17 00:33:50;;;;;;;8.52;3.30;;;;;;;;;;4366951;32;20500;-68
2022/08/17 00:36:16;;;;;;;7.70;3.85;;;;;;;;;;4382128;32;20150;-68
2022/08/17 00:38:43;;;;;;;6.78;3.50;;;;;;;;;;4375283;32;20086;-67
2022/08/17 00:41:13;;;;;;;4.90;3.45;;;;;;;;;;4367786;32;20120;-68
2022/08/17 00:43:42;;;;;;;5.85;3.58;;;;;;;;;;4367399;32;20177;-67
2022/08/17 00:46:16;;;;;;;6.68;3.50;;;;;;;;;;4366689;32;20504;-68
2022/08/17 00:48:43;;;;;;;4.60;3.50;;;;;;;;;;4393401;32;20116;-68
2022/08/17 00:51:15;;;;;;;5.93;3.47;;;;;;;;;;4366696;32;20084;-67
2022/08/17 00:53:47;;;;;;;5.68;3.28;;;;;;;;;;4393113;32;20157;-67
2022/08/17 00:56:18;;;;;;;7.12;3.58;;;;;;;;;;4378479;32;20096;-68
2022/08/17 00:58:45;;;;;;;5.50;3.60;;;;;;;;;;4354504;32;20157;-68
2022/08/17 01:01:12;;;;;;;6.15;3.22;;;;;;;;;;4378726;32;20078;-68
2022/08/17 01:03:38;;;;;;;7.18;3.50;;;;;;;;;;4378505;32;20101;-67
2022/08/17 01:06:06;;;;;;;5.72;3.50;;;;;;;;;;4366073;32;20127;-68
2022/08/17 01:08:33;;;;;;;5.60;3.10;;;;;;;;;;4378678;32;20069;-67
2022/08/17 01:11:01;;;;;;;6.75;3.40;;;;;;;;;;4378453;32;20074;-68
2022/08/17 01:13:33;;;;;;;10.45;4.00;;;;;;;;;;4378595;32;20138;-66
2022/08/17 01:16:21;;;;;;;10.52;3.87;;;;;;;;;;4378950;32;20081;-67
2022/08/17 01:18:51;;;;;;;8.27;4.12;;;;;;;;;;4391471;32;20068;-68
2022/08/17 01:21:45;;;;;;;11.38;4.15;;;;;;;;;;4378506;32;20076;-68
2022/08/17 01:24:12;;;;;;;12.52;4.15;;;;;;;;;;4379071;32;20529;-67
2022/08/17 01:26:40;;;;;;;15.40;4.07;;;;;;;;;;4378344;32;20180;-67
2022/08/17 01:29:07;;;;;;;13.15;3.70;;;;;;;;;;4378312;32;20092;-68
2022/08/17 01:31:44;;;;;;;13.07;4.30;;;;;;;;;;4353940;32;20089;-66
2022/08/17 01:34:12;;;;;;;12.82;4.15;;;;;;;;;;4365810;32;20073;-68
2022/08/17 01:36:41;;;;;;;15.65;4.10;;;;;;;;;;4392023;32;20081;-67
2022/08/17 01:39:15;;;;;;;13.52;4.43;;;;;;;;;;4378045;32;20074;-68
2022/08/17 01:41:41;;;;;;;15.98;5.05;;;;;;;;;;4378571;32;20113;-67
2022/08/17 01:44:09;;;;;;;12.50;3.95;;;;;;;;;;4378386;32;20512;-68
2022/08/17 01:46:37;;;;;;;18.85;4.97;;;;;;;;;;4378538;32;20112;-68
2022/08/17 01:49:08;;;;;;;19.10;5.03;;;;;;;;;;4365623;32;20097;-67
2022/08/17 01:51:35;;;;;;;15.38;4.25;;;;;;;;;;4366046;32;20080;-67
2022/08/17 01:54:05;;;;;;;14.40;5.22;;;;;;;;;;4365700;32;20516;-69
2022/08/17 01:56:33;;;;;;;10.90;4.60;;;;;;;;;;4392076;32;20170;-67
2022/08/17 01:59:00;;;;;;;17.05;5.07;;;;;;;;;;4378001;32;20152;-68
2022/08/17 02:01:29;;;;;;;12.15;4.60;;;;;;;;;;4365463;32;20449;-67
2022/08/17 02:03:56;;;;;;;14.25;4.57;;;;;;;;;;4377854;32;20088;-67
2022/08/17 02:06:22;;;;;;;13.95;4.47;;;;;;;;;;4365766;32;20157;-67
2022/08/17 02:08:49;;;;;;;8.68;4.20;;;;;;;;;;4391819;32;20074;-67
2022/08/17 02:11:18;;;;;;;16.40;5.90;;;;;;;;;;4391688;32;20074;-68
2022/08/17 02:13:49;;;;;;;13.62;5.62;;;;;;;;;;4353314;32;20125;-67
2022/08/17 02:16:16;;;;;;;14.70;5.25;;;;;;;;;;4377882;32;20140;-68
2022/08/17 02:18:43;;;;;;;15.80;5.00;;;;;;;;;;4365220;32;20097;-68
2022/08/17 02:21:10;;;;;;;20.80;6.05;;;;;;;;;;4391798;32;20184;-67
2022/08/17 02:23:40;;;;;;;14.52;5.15;;;;;;;;;;4391442;32;20519;-68
2022/08/17 02:26:07;;;;;;;14.90;5.32;;;;;;;;;;4365692;32;20085;-67
2022/08/17 02:28:34;;;;;;;13.50;5.32;;;;;;;;;;4377995;32;20069;-67
2022/08/17 02:31:06;;;;;;;14.87;5.62;;;;;;;;;;4364839;32;20081;-67
2022/08/17 02:33:34;;;;;;;20.15;6.15;;;;;;;;;;4377599;32;20058;-68
2022/08/17 02:36:01;;;;;;;14.32;6.00;;;;;;;;;;4377287;32;20106;-68
2022/08/17 02:38:30;;;;;;;13.62;6.65;;;;;;;;;;4377984;32;20093;-68
2022/08/17 02:40:57;;;;;;;12.82;6.40;;;;;;;;;;4364872;32;20073;-68
2022/08/17 02:43:26;;;;;;;15.38;5.75;;;;;;;;;;4352675;32;20537;-67
2022/08/17 02:45:53;;;;;;;10.70;6.25;;;;;;;;;;4352292;32;20550;-68
2022/08/17 02:48:20;;;;;;;10.45;6.18;;;;;;;;;;4378131;32;20113;-67
2022/08/17 02:50:47;;;;;;;12.25;5.82;;;;;;;;;;4364751;32;20475;-67
2022/08/17 02:53:14;;;;;;;14.77;5.90;;;;;;;;;;4377707;32;20145;-66
2022/08/17 02:55:41;;;;;;;12.52;5.40;;;;;;;;;;4364591;32;20165;-68
2022/08/17 02:58:09;;;;;;;9.20;5.05;;;;;;;;;;4391723;32;20153;-67
2022/08/17 03:00:42;;;;;;;11.65;4.10;;;;;;;;;;4378612;32;20157;-68
2022/08/17 03:03:12;;;;;;;7.45;4.10;;;;;;;;;;4365584;32;20108;-68
2022/08/17 03:05:39;;;;;;;9.10;4.45;;;;;;;;;;4377134;32;20090;-68
2022/08/17 03:08:06;;;;;;;10.20;4.20;;;;;;;;;;4377440;32;20142;-68
2022/08/17 03:10:33;;;;;;;7.07;3.80;;;;;;;;;;4377179;32;20070;-67
2022/08/17 03:13:00;;;;;;;10.60;3.62;;;;;;;;;;4352906;32;20073;-68
2022/08/17 03:15:29;;;;;;;7.12;3.60;;;;;;;;;;4370496;32;20090;-69
2022/08/17 03:17:57;;;;;;;7.97;3.60;;;;;;;;;;4382735;32;20077;-67
2022/08/17 03:20:24;;;;;;;9.32;4.10;;;;;;;;;;4377911;32;20153;-68
2022/08/17 03:22:52;;;;;;;8.68;4.72;;;;;;;;;;4377011;32;20145;-67
2022/08/17 03:25:31;;;;;;;12.20;3.62;;;;;;;;;;4364784;32;20520;-68
2022/08/17 03:27:58;;;;;;;16.00;4.50;;;;;;;;;;4377507;32;20082;-67
2022/08/17 03:30:25;;;;;;;13.02;3.55;;;;;;;;;;4352047;32;20528;-67
2022/08/17 03:32:54;;;;;;;9.20;3.83;;;;;;;;;;4364979;32;20082;-68
2022/08/17 03:35:23;;;;;;;10.43;3.72;;;;;;;;;;4364782;32;20070;-68
2022/08/17 03:37:49;;;;;;;12.27;4.40;;;;;;;;;;4377022;32;20077;-68
2022/08/17 03:40:16;;;;;;;12.43;4.00;;;;;;;;;;4364576;32;20161;-67
2022/08/17 03:42:43;;;;;;;12.65;3.78;;;;;;;;;;4366850;32;20518;-67
2022/08/17 03:56:40;;;;;;;10.52;4.05;;;;;;;;;;4380043;32;20073;-67
2022/08/17 03:56:42;;;;;;;7.87;4.35;;;;;;;;;;4380739;32;20097;-68
2022/08/17 03:59:17;;;;;;;11.73;4.47;;;;;;;;;;4379769;32;20145;-68
2022/08/17 04:01:45;;;;;;;12.43;4.23;;;;;;;;;;4394063;32;20078;-68
2022/08/17 04:04:13;;;;;;;14.60;4.12;;;;;;;;;;4367454;32;20101;-68
2022/08/17 04:06:40;;;;;;;7.75;4.20;;;;;;;;;;4393678;32;20073;-67
2022/08/17 04:09:08;;;;;;;12.73;3.95;;;;;;;;;;4379361;32;20077;-67
2022/08/17 04:11:35;;;;;;;10.75;4.15;;;;;;;;;;4379864;32;20109;-67
2022/08/17 04:14:03;;;;;;;10.07;3.47;;;;;;;;;;4379333;32;20074;-67
2022/08/17 04:16:30;;;;;;;18.15;4.00;;;;;;;;;;4379516;32;20160;-67
2022/08/17 04:18:57;;;;;;;8.50;3.47;;;;;;;;;;4366718;32;20613;-67
2022/08/17 04:21:23;;;;;;;10.65;3.83;;;;;;;;;;4393273;32;20098;-66
2022/08/17 04:23:51;;;;;;;11.35;3.78;;;;;;;;;;4379046;32;20105;-67
2022/08/17 04:26:18;;;;;;;11.82;3.72;;;;;;;;;;4393230;32;20069;-67
2022/08/17 04:28:47;;;;;;;7.70;3.67;;;;;;;;;;4379888;32;20076;-67
2022/08/17 04:31:15;;;;;;;8.07;3.42;;;;;;;;;;4379176;32;20086;-68
2022/08/17 04:33:43;;;;;;;8.85;3.55;;;;;;;;;;4367619;32;20161;-66
2022/08/17 04:36:11;;;;;;;6.40;3.12;;;;;;;;;;4379319;32;20153;-67
2022/08/17 04:38:39;;;;;;;7.87;3.65;;;;;;;;;;4354073;32;20537;-68
2022/08/17 04:43:54;;;;;;;9.90;5.57;;;;;;;;;;4393212;32;20171;-68
2022/08/17 04:46:33;;;;;;;14.75;5.75;;;;;;;;;;4379394;32;20070;-67
2022/08/17 04:49:03;;;;;;;16.02;4.65;;;;;;;;;;4379137;32;20077;-68
2022/08/17 04:51:31;;;;;;;10.90;5.20;;;;;;;;;;4366482;32;20116;-67
2022/08/17 04:54:02;;;;;;;10.32;5.50;;;;;;;;;;4379109;32;20081;-68
2022/08/17 04:56:29;;;;;;;8.32;3.87;;;;;;;;;;4378968;32;20080;-68
2022/08/17 04:58:58;;;;;;;10.18;4.10;;;;;;;;;;4366370;32;20074;-68
2022/08/17 05:01:27;;;;;;;15.88;5.22;;;;;;;;;;4378469;32;20065;-68
2022/08/17 05:03:55;;;;;;;12.00;4.32;;;;;;;;;;4366642;32;20251;-68
2022/08/17 05:06:22;;;;;;;11.80;3.92;;;;;;;;;;4379014;32;20078;-67
2022/08/17 05:08:49;;;;;;;9.95;4.43;;;;;;;;;;4379005;32;20077;-68
2022/08/17 05:11:15;;;;;;;7.55;4.07;;;;;;;;;;4378359;32;20152;-68
2022/08/17 05:13:42;;;;;;;14.75;4.20;;;;;;;;;;4378562;32;20157;-68
2022/08/17 05:16:09;;;;;;;9.35;3.97;;;;;;;;;;4365972;32;20074;-66
2022/08/17 05:18:37;;;;;;;5.82;3.37;;;;;;;;;;4378529;32;20070;-70
2022/08/17 05:21:05;;;;;;;8.27;3.40;;;;;;;;;;4392548;32;20081;-67
2022/08/17 05:23:32;;;;;;;8.43;3.90;;;;;;;;;;4392395;32;20516;-68
2022/08/17 05:25:59;;;;;;;7.30;3.78;;;;;;;;;;4378284;32;20066;-68
2022/08/17 05:28:26;;;;;;;6.18;3.50;;;;;;;;;;4366059;32;20094;-68
2022/08/17 05:30:58;;;;;;;8.93;3.28;;;;;;;;;;4354045;32;20093;-68
2022/08/17 05:33:28;;;;;;;5.40;3.00;;;;;;;;;;4366052;32;20091;-68
2022/08/17 05:35:57;;;;;;;9.85;3.47;;;;;;;;;;4366627;32;20082;-69
2022/08/17 05:38:25;;;;;;;6.53;3.75;;;;;;;;;;4378242;32;20093;-69
2022/08/17 05:40:52;;;;;;;15.55;3.95;;;;;;;;;;4392313;32;20164;-68
2022/08/17 05:43:22;;;;;;;7.90;3.87;;;;;;;;;;4353641;32;20157;-68
2022/08/17 05:46:02;;;;;;;6.37;3.55;;;;;;;;;;4365737;32;20082;-67
2022/08/17 05:48:33;;;;;;;6.70;3.50;;;;;;;;;;4378585;32;20157;-69
2022/08/17 05:51:02;;;;;;;5.93;3.12;;;;;;;;;;4371025;32;20159;-68
2022/08/17 05:54:05;;;;;;;6.60;3.55;;;;;;;;;;4383959;32;20088;-68
2022/08/17 05:56:50;;;;;;;8.25;3.40;;;;;;;;;;4391832;32;20086;-68
2022/08/17 05:59:55;;;;;;;5.97;3.37;;;;;;;;;;4392120;32;20097;-66
2022/08/17 06:02:24;;;;;;;7.60;3.65;;;;;;;;;;4315015;33;20094;-68
2022/08/17 06:05:33;;;;;;;9.52;3.62;;;;;;;;;;4315083;33;20083;-68
2022/08/17 06:08:08;;;;;;;6.55;3.17;;;;;;;;;;4365197;32;20093;-66
2022/08/17 06:10:56;;;;;;;9.13;3.45;;;;;;;;;;4392140;32;20593;-68
2022/08/17 06:13:45;;;;;;;11.25;3.15;;;;;;;;;;4391557;32;20073;-68
2022/08/17 06:16:17;;;;;;;7.20;3.10;;;;;;;;;;4377415;32;20492;-67
2022/08/17 06:19:01;;;;;;;5.50;2.78;;;;;;;;;;4377556;32;20169;-67
2022/08/17 06:21:35;;;;;;;5.50;2.90;;;;;;;;;;4365105;32;20065;-69
2022/08/17 06:24:14;;;;;;;13.45;4.40;;;;;;;;;;4366109;32;20074;-67
2022/08/17 06:26:43;;;;;;;9.25;3.95;;;;;;;;;;4377792;32;20546;-69
2022/08/17 06:29:27;;;;;;;9.68;3.85;;;;;;;;;;4365211;32;20085;-68
2022/08/17 06:31:54;;;;;;;9.68;4.53;;;;;;;;;;4391191;32;20097;-68
2022/08/17 06:34:21;;;;;;;8.15;3.45;;;;;;;;;;4377315;32;20156;-68
2022/08/17 06:36:56;;;;;;;9.30;3.35;;;;;;;;;;4377741;32;20169;-68
2022/08/17 06:39:50;;;;;;;10.15;3.50;;;;;;;;;;4391940;32;20584;-67
2022/08/17 06:42:30;;;;;;;5.87;3.50;;;;;;;;;;4391997;32;20154;-69
2022/08/17 06:45:06;;;;;;;7.32;2.62;;;;;;;;;;4391663;32;20077;-68
2022/08/17 06:47:57;;;;;;;6.15;3.08;;;;;;;;;;4364848;32;20144;-68
2022/08/17 06:50:41;;;;;;;3.53;2.65;;;;;;;;;;4352858;32;20471;-68
2022/08/17 06:53:20;;;;;;;4.12;2.60;;;;;;;;;;4365011;32;20078;-68
2022/08/17 06:56:02;;;;;;;5.28;2.53;;;;;;;;;;4376674;32;20549;-68
2022/08/17 06:58:30;;;;;;;4.80;2.92;;;;;;;;;;4377253;32;20082;-68
2022/08/17 07:01:03;;;;;;;5.00;2.87;;;;;;;;;;4365194;32;20516;-68
2022/08/17 07:03:55;;;;;;;5.10;2.92;;;;;;;;;;4377214;32;20078;-68
2022/08/17 07:06:25;;;;;;;4.15;2.58;;;;;;;;;;4377870;32;20086;-68
2022/08/17 07:09:09;;;;;;;9.00;3.53;;;;;;;;;;4364932;32;20152;-68
2022/08/17 07:11:59;;;;;;;6.53;2.97;;;;;;;;;;4352728;32;20085;-68
2022/08/17 07:14:52;;;;;;;5.10;2.62;;;;;;;;;;4364987;32;20544;-68
2022/08/17 07:17:21;;;;;;;4.07;2.55;;;;;;;;;;4393597;32;20078;-68
2022/08/17 07:19:49;;;;;;;2.90;2.30;;;;;;;;;;4355300;32;20082;-68
2022/08/17 07:22:47;;;;;;;7.25;3.05;;;;;;;;;;4380102;32;20160;-66
2022/08/17 07:25:17;;;;;;;4.30;2.15;;;;;;;;;;4393939;32;20158;-69
2022/08/17 07:27:55;;;;;;;3.85;2.20;;;;;;;;;;4394100;32;20081;-68
2022/08/17 07:30:23;;;;;;;5.75;2.70;;;;;;;;;;4354974;32;20085;-69
2022/08/17 07:33:02;;;;;;;4.95;2.45;;;;;;;;;;4380170;32;20161;-68
2022/08/17 07:35:29;;;;;;;2.78;1.87;;;;;;;;;;4367105;32;20155;-70
2022/08/17 07:38:15;;;;;;;3.67;2.10;;;;;;;;;;4367025;32;20074;-67
2022/08/17 07:41:04;;;;;;;5.50;2.37;;;;;;;;;;4354894;32;20070;-67
2022/08/17 07:43:35;;;;;;;4.90;2.22;;;;;;;;;;4393972;32;20089;-69
2022/08/17 07:49:13;;;;;;;2.15;1.83;;;;;;;;;;4393792;32;20198;-69
2022/08/17 07:52:10;;;;;;;3.60;1.98;;;;;;;;;;4379664;32;20109;-68
2022/08/17 07:54:37;;;;;;;;;;;;;;;;;;4379693;32;20093;-68
2022/08/17 07:57:13;;;;;;;2.37;1.80;;;;;;;;;;4367646;32;19961;-69
2022/08/17 07:59:59;;;;;;;3.87;1.98;;;;;;;;;;4394075;32;20489;-67
2022/08/17 08:02:40;;;;;;;4.72;2.17;;;;;;;;;;4393789;32;20524;-67
2022/08/17 08:05:19;;;;;;;2.33;1.92;;;;;;;;;;4368300;32;20081;-67
2022/08/17 08:08:02;;;;;;;4.40;2.22;;;;;;;;;;4380117;32;20086;-67
2022/08/17 08:10:42;;;;;;;4.45;2.10;;;;;;;;;;4354291;32;20524;-67
2022/08/17 08:13:26;;;;;;;2.85;2.22;;;;;;;;;;4366928;32;20150;-69
2022/08/17 08:15:55;;;;;;;5.00;2.03;;;;;;;;;;4379468;32;20077;-67
2022/08/17 08:18:34;;;;;;;3.62;1.90;;;;;;;;;;4379652;32;20089;-69
2022/08/17 08:21:08;;;;;;;2.35;1.95;;;;;;;;;;4380058;32;20081;-67
2022/08/17 08:23:46;;;;;;;5.32;1.75;;;;;;;;;;4354695;32;20081;-68
2022/08/17 08:26:33;;;;;;;4.47;2.20;;;;;;;;;;4395279;32;20061;-68
2022/08/17 08:29:34;;;;;;;3.30;2.10;;;;;;;;;;4396505;32;20084;-69
2022/08/17 08:32:19;;;;;;;2.83;1.80;;;;;;;;;;4380644;32;20173;-67
2022/08/17 08:34:57;;;;;;;2.30;1.90;;;;;;;;;;4367609;32;20535;-67
2022/08/17 08:37:33;;;;;;;4.90;2.05;;;;;;;;;;4379466;32;20069;-67
2022/08/17 08:40:15;;;;;;;3.53;2.10;;;;;;;;;;4367883;32;20209;-69
2022/08/17 08:42:49;;;;;;;7.43;2.10;;;;;;;;;;4354509;32;20070;-67
2022/08/17 08:45:22;;;;;;;3.12;2.08;;;;;;;;;;4354153;32;20108;-68
2022/08/17 08:48:04;;;;;;;3.55;2.30;;;;;;;;;;4354393;32;20522;-69
2022/08/17 08:51:06;;;;;;;4.25;2.00;;;;;;;;;;4379113;32;20074;-68
2022/08/17 08:53:51;;;;;;;3.75;2.30;;;;;;;;;;4378793;32;20163;-67
2022/08/17 08:56:27;;;;;;;3.95;2.08;;;;;;;;;;4378471;32;20609;-67
2022/08/17 08:58:53;;;;;;;;;;;;;;;;;;4366351;32;20595;-69
2022/08/17 09:01:27;;;;;;;4.62;2.40;;;;;;;;;;4379120;32;19977;-68
2022/08/17 09:04:08;;;;;;;6.05;3.20;;;;;;;;;;4366947;32;20488;-68
2022/08/17 09:06:43;;;;;;;6.72;2.72;;;;;;;;;;4366672;32;20085;-69
2022/08/17 09:09:23;;;;;;;4.85;2.60;;;;;;;;;;4366298;32;20183;-68
2022/08/17 09:11:55;;;;;;;4.00;2.08;;;;;;;;;;4366919;32;20181;-67
2022/08/17 09:14:32;;;;;;;4.40;2.75;;;;;;;;;;4379530;32;20563;-68
2022/08/17 09:17:04;;;;;;;5.55;2.30;;;;;;;;;;4378494;32;20104;-69
2022/08/17 09:19:36;;;;;;;3.20;2.03;;;;;;;;;;4392512;32;20072;-67
2022/08/17 09:22:24;;;;;;;1.95;1.83;;;;;;;;;;4378442;32;20177;-68
2022/08/17 09:25:03;;;;;;;7.25;3.25;;;;;;;;;;4365700;32;20093;-68
2022/08/17 09:27:38;;;;;;;8.02;3.00;;;;;;;;;;4366286;32;20535;-69
2022/08/17 09:30:09;;;;;;;4.17;2.20;;;;;;;;;;4378766;32;20137;-70
2022/08/17 09:32:43;;;;;;;3.25;2.00;;;;;;;;;;4378289;32;20157;-68
2022/08/17 09:35:35;;;;;;;5.40;2.53;;;;;;;;;;4378630;32;20096;-69
2022/08/17 09:38:05;;;;;;;5.85;2.80;;;;;;;;;;4378217;32;20157;-69
2022/08/17 09:40:48;;;;;;;4.60;2.28;;;;;;;;;;4391726;32;20088;-69
2022/08/17 09:43:29;;;;;;;5.03;1.95;;;;;;;;;;4365885;32;20173;-69
2022/08/17 09:46:01;;;;;;;6.37;2.25;;;;;;;;;;4392392;32;20084;-69
2022/08/17 09:48:37;;;;;;;4.25;2.58;;;;;;;;;;4365890;32;20073;-68
2022/08/17 09:51:21;;;;;;;;;;;;;;;;;;4378926;32;20216;-67
2022/08/17 09:53:48;;;;;;;9.90;2.50;;;;;;;;;;4366155;32;19961;-68
2022/08/17 09:56:43;;;;;;;5.78;3.03;;;;;;;;;;4352587;32;20539;-68
2022/08/17 09:59:34;;;;;;;6.78;2.85;;;;;;;;;;4392768;32;20153;-68
2022/08/17 10:02:18;;;;;;;5.80;2.60;;;;;;;;;;4365268;32;20531;-69
2022/08/17 10:05:02;;;;;;;6.22;2.50;;;;;;;;;;4377764;32;20077;-68
2022/08/17 10:07:51;;;;;;;9.23;4.00;;;;;;;;;;4365458;32;20108;-69
2022/08/17 10:10:25;;;;;;;9.00;4.05;;;;;;;;;;4353609;32;20078;-69
2022/08/17 10:13:00;;;;;;;4.28;3.10;;;;;;;;;;4378210;32;20093;-69
2022/08/17 10:15:35;;;;;;;6.12;2.67;;;;;;;;;;4377515;32;20104;-68
2022/08/17 10:18:22;;;;;;;;;;;;;;;;;;4392198;32;20070;-67
2022/08/17 10:27:03;;;;;;;6.78;2.45;;;;;;;;;;4392248;32;20062;-67
2022/08/17 10:29:32;;;;;;;3.30;2.40;;;;;;;;;;4364955;32;20519;-68
2022/08/17 10:32:03;;;;;;;6.80;2.60;;;;;;;;;;4377625;32;20538;-68
2022/08/17 10:35:01;;;;;;;6.05;2.78;;;;;;;;;;4377525;32;20086;-67
2022/08/17 10:37:52;;;;;;;6.90;2.85;;;;;;;;;;4391842;32;20097;-68
2022/08/17 10:40:34;;;;;;;7.53;3.08;;;;;;;;;;4377620;32;20103;-68
2022/08/17 10:43:23;;;;;;;9.48;3.10;;;;;;;;;;4391560;32;20070;-68
2022/08/17 10:46:19;;;;;;;6.10;2.62;;;;;;;;;;4391366;32;20077;-67
2022/08/17 10:49:19;;;;;;;4.90;2.08;;;;;;;;;;4391341;32;20089;-68
2022/08/17 10:52:26;;;;;;;5.12;2.50;;;;;;;;;;4365503;32;20126;-68
2022/08/17 10:54:55;;;;;;;3.00;2.05;;;;;;;;;;4370118;32;20170;-69
2022/08/17 10:57:38;;;;;;;4.40;2.12;;;;;;;;;;4379759;32;20104;-68
2022/08/17 11:00:27;;;;;;;2.60;1.90;;;;;;;;;;4369512;32;20093;-68
2022/08/17 11:02:54;;;;;;;2.60;1.77;;;;;;;;;;4395907;32;20426;-69
2022/08/17 11:05:36;;;;;;;2.65;1.90;;;;;;;;;;4378104;32;20086;-68
2022/08/17 11:08:29;;;;;;;6.28;1.85;;;;;;;;;;4364733;32;20141;-68
2022/08/17 11:11:14;;;;;;;5.07;2.87;;;;;;;;;;4364493;32;20153;-68
2022/08/17 11:13:48;;;;;;;3.80;1.83;;;;;;;;;;4391183;32;20143;-68
2022/08/17 11:16:21;;;;;;;3.75;1.92;;;;;;;;;;4377197;32;20171;-69
2022/08/17 11:19:09;;;;;;;3.17;1.90;;;;;;;;;;4391404;32;20081;-69
2022/08/17 11:22:06;;;;;;;3.58;1.80;;;;;;;;;;4377878;32;20460;-68
2022/08/17 11:24:32;;;;;;;;;;;;;;;;;;4365092;32;20532;-67
2022/08/17 11:27:04;;;;;;;2.12;1.90;;;;;;;;;;4377455;32;19983;-67
2022/08/17 11:29:51;;;;;;;3.33;2.10;;;;;;;;;;4376938;32;20501;-67
2022/08/17 11:32:31;;;;;;;5.78;2.35;;;;;;;;;;4377264;32;20069;-69
2022/08/17 11:35:12;;;;;;;3.42;1.80;;;;;;;;;;4377113;32;20066;-67
2022/08/17 11:37:50;;;;;;;2.70;2.20;;;;;;;;;;4364885;32;20085;-67
2022/08/17 11:40:39;;;;;;;3.33;1.80;;;;;;;;;;4364969;32;20092;-69
2022/08/17 11:43:28;;;;;;;5.45;2.12;;;;;;;;;;4376979;32;20141;-67
2022/08/17 11:46:17;;;;;;;2.37;1.80;;;;;;;;;;4378090;32;20165;-69
2022/08/17 11:52:03;;;;;;;3.50;2.10;;;;;;;;;;4391536;32;20074;-67
2022/08/17 11:54:30;;;;;;;5.87;2.35;;;;;;;;;;4367853;32;20084;-69
2022/08/17 11:56:58;;;;;;;4.35;1.73;;;;;;;;;;4364989;32;20096;-68
2022/08/17 11:59:42;;;;;;;4.93;2.20;;;;;;;;;;4364858;32;20072;-69
2022/08/17 12:02:30;;;;;;;2.22;1.65;;;;;;;;;;4391170;32;20061;-68
2022/08/17 12:05:19;;;;;;;3.00;2.08;;;;;;;;;;4367636;32;20082;-69
2022/08/17 12:07:50;;;;;;;4.25;1.90;;;;;;;;;;4367509;32;20158;-68
2022/08/17 12:10:29;;;;;;;1.90;1.70;;;;;;;;;;4355177;32;20455;-68
2022/08/17 12:12:56;;;;;;;5.40;1.90;;;;;;;;;;4368543;32;20094;-69
2022/08/17 12:15:37;;;;;;;4.85;2.80;;;;;;;;;;4355196;32;20089;-69
2022/08/17 12:18:04;;;;;;;3.78;2.12;;;;;;;;;;4354528;32;20081;-68
2022/08/17 12:20:35;;;;;;;18.25;4.90;;;;;;;;;;4354607;32;20089;-67
2022/08/17 12:23:11;;;;;;;4.40;1.87;;;;;;;;;;4379541;32;20093;-68
2022/08/17 12:25:48;;;;;;;10.85;3.45;;;;;;;;;;4393298;32;20162;-69
2022/08/17 12:28:24;;;;;;;7.80;2.42;;;;;;;;;;4367452;32;20082;-68
2022/08/17 12:30:51;;;;;;;4.82;2.30;;;;;;;;;;4379223;32;20161;-68
2022/08/17 12:33:22;;;;;;;4.85;1.65;;;;;;;;;;4379115;32;20157;-68
2022/08/17 12:35:57;;;;;;;28.55;5.65;;;;;;;;;;4379452;32;20078;-68
2022/08/17 12:38:25;;;;;;;4.23;1.87;;;;;;;;;;4366950;32;20070;-68
2022/08/17 12:40:56;;;;;;;3.95;2.25;;;;;;;;;;4367020;32;20081;-67
2022/08/17 12:43:26;;;;;;;9.85;2.95;;;;;;;;;;4378983;32;20068;-67
2022/08/17 12:45:59;;;;;;;4.62;2.15;;;;;;;;;;4379018;32;20111;-69
2022/08/17 12:48:30;;;;;;;3.85;1.77;;;;;;;;;;4378957;32;20089;-67
2022/08/17 12:51:07;;;;;;;3.37;1.73;;;;;;;;;;4366560;32;20145;-68
2022/08/17 12:53:34;;;;;;;3.42;1.80;;;;;;;;;;4378825;32;20066;-69
2022/08/17 12:56:01;;;;;;;2.17;1.70;;;;;;;;;;4378809;32;20104;-69
2022/08/17 12:58:30;;;;;;;3.97;1.55;;;;;;;;;;4379280;32;20515;-69
2022/08/17 13:01:04;;;;;;;4.30;1.75;;;;;;;;;;4379975;32;20093;-69
2022/08/17 13:03:43;;;;;;;5.32;1.95;;;;;;;;;;4366294;32;20076;-69
2022/08/17 13:06:13;;;;;;;4.05;2.00;;;;;;;;;;4379086;32;20176;-68
2022/08/17 13:08:46;;;;;;;3.20;2.00;;;;;;;;;;4393171;32;20097;-68
2022/08/17 13:11:23;;;;;;;1.95;1.65;;;;;;;;;;4378841;32;20081;-68
2022/08/17 13:13:53;;;;;;;2.78;1.95;;;;;;;;;;4366704;32;20082;-68
2022/08/17 13:16:26;;;;;;;3.30;1.95;;;;;;;;;;4365989;32;20081;-68
2022/08/17 13:19:04;;;;;;;4.05;2.10;;;;;;;;;;4378857;32;20084;-68
2022/08/17 13:21:32;;;;;;;3.47;1.90;;;;;;;;;;4392292;32;20146;-68
2022/08/17 13:24:12;;;;;;;5.72;2.28;;;;;;;;;;4378780;32;20080;-68
2022/08/17 13:26:40;;;;;;;2.87;1.77;;;;;;;;;;4378281;32;20159;-69
2022/08/17 13:29:22;;;;;;;12.82;3.40;;;;;;;;;;4353552;32;20101;-67
2022/08/17 13:31:51;;;;;;;4.50;1.92;;;;;;;;;;4378634;32;20524;-68
2022/08/17 13:34:25;;;;;;;3.45;1.75;;;;;;;;;;4366694;32;20073;-69
2022/08/17 13:37:12;;;;;;;8.80;2.75;;;;;;;;;;4366483;32;20086;-68
2022/08/17 13:39:43;;;;;;;6.95;2.60;;;;;;;;;;4379556;32;20084;-68
2022/08/17 13:42:38;;;;;;;8.68;2.42;;;;;;;;;;4366525;32;20077;-69
2022/08/17 13:45:30;;;;;;;4.47;2.20;;;;;;;;;;4392199;32;20086;-69
2022/08/17 13:48:09;;;;;;;7.25;2.00;;;;;;;;;;4392482;32;20085;-68
2022/08/17 13:50:40;;;;;;;3.45;1.80;;;;;;;;;;4392069;32;20069;-68
2022/08/17 13:53:21;;;;;;;4.37;2.20;;;;;;;;;;4366496;32;20102;-68
2022/08/17 13:56:01;;;;;;;2.75;1.83;;;;;;;;;;4352851;32;20100;-68
2022/08/17 13:58:36;;;;;;;4.15;1.62;;;;;;;;;;4353732;32;20085;-69
2022/08/17 14:01:30;;;;;;;4.28;2.00;;;;;;;;;;4365361;32;20161;-69
2022/08/17 14:03:58;;;;;;;4.35;1.95;;;;;;;;;;4392073;32;20092;-68
2022/08/17 14:06:27;;;;;;;4.50;1.62;;;;;;;;;;4377899;32;20521;-69
2022/08/17 14:08:54;;;;;;;5.47;2.17;;;;;;;;;;4353293;32;20084;-68
2022/08/17 14:11:22;;;;;;;3.50;1.90;;;;;;;;;;4365541;32;20468;-69
2022/08/17 14:13:49;;;;;;;2.35;1.55;;;;;;;;;;4365685;32;20153;-68
2022/08/17 14:16:16;;;;;;;2.03;1.77;;;;;;;;;;4377624;32;20554;-68
2022/08/17 14:18:43;;;;;;;3.85;2.00;;;;;;;;;;4377814;32;20074;-67
2022/08/17 14:21:10;;;;;;;2.10;1.70;;;;;;;;;;4391718;32;20074;-68
2022/08/17 14:23:37;;;;;;;3.00;1.85;;;;;;;;;;4365209;32;20530;-68
2022/08/17 14:26:04;;;;;;;4.57;1.70;;;;;;;;;;4353057;32;20077;-69
2022/08/17 14:28:30;;;;;;;2.28;1.80;;;;;;;;;;4391974;32;20143;-68
2022/08/17 14:30:57;;;;;;;6.97;2.22;;;;;;;;;;4377764;32;20093;-68
2022/08/17 14:33:24;;;;;;;4.20;1.90;;;;;;;;;;4365230;32;20070;-68
2022/08/17 14:35:52;;;;;;;3.55;2.03;;;;;;;;;;4391572;32;20451;-69
2022/08/17 14:38:19;;;;;;;5.62;2.28;;;;;;;;;;4377429;32;20066;-68
2022/08/17 14:40:47;;;;;;;4.53;2.00;;;;;;;;;;4377373;32;20096;-69
2022/08/17 14:43:14;;;;;;;6.15;2.22;;;;;;;;;;4365559;32;20066;-68
2022/08/17 14:45:42;;;;;;;6.00;2.33;;;;;;;;;;4377580;32;20168;-69
2022/08/17 14:48:09;;;;;;;3.35;2.00;;;;;;;;;;4353127;32;20169;-68
2022/08/17 14:50:39;;;;;;;7.70;3.37;;;;;;;;;;4391241;32;20078;-67
2022/08/17 14:53:07;;;;;;;4.07;1.98;;;;;;;;;;4352657;32;20078;-69
2022/08/17 14:55:34;;;;;;;6.15;2.40;;;;;;;;;;4364510;32;20157;-67
2022/08/17 14:58:02;;;;;;;5.00;2.62;;;;;;;;;;4391415;32;20092;-68
2022/08/17 15:00:30;;;;;;;4.18;2.20;;;;;;;;;;4365086;32;20145;-68
2022/08/17 15:02:59;;;;;;;3.80;1.70;;;;;;;;;;4391460;32;20089;-69
2022/08/17 15:05:32;;;;;;;4.55;2.15;;;;;;;;;;4365384;32;20154;-69
2022/08/17 15:08:00;;;;;;;3.12;2.10;;;;;;;;;;4352879;32;20062;-68
2022/08/17 15:10:28;;;;;;;3.58;1.92;;;;;;;;;;4364670;32;20078;-68
2022/08/17 15:12:55;;;;;;;6.82;2.05;;;;;;;;;;4377091;32;20093;-68
2022/08/17 15:15:21;;;;;;;7.57;2.70;;;;;;;;;;4377290;32;20082;-68
2022/08/17 15:17:50;;;;;;;6.35;2.55;;;;;;;;;;4364704;32;20145;-68
2022/08/17 15:20:23;;;;;;;10.70;3.60;;;;;;;;;;4364822;32;20520;-68
2022/08/17 15:22:53;;;;;;;4.70;2.28;;;;;;;;;;4377408;32;20074;-68
2022/08/17 15:25:21;;;;;;;8.57;2.75;;;;;;;;;;4377866;32;20155;-69
2022/08/17 15:27:47;;;;;;;5.78;2.65;;;;;;;;;;4352557;32;20097;-68
2022/08/17 15:30:14;;;;;;;6.37;3.12;;;;;;;;;;4377307;32;20154;-68
2022/08/17 15:32:42;;;;;;;6.50;3.03;;;;;;;;;;4391399;32;20080;-68
2022/08/17 15:35:10;;;;;;;5.32;2.60;;;;;;;;;;4365165;32;20082;-68
2022/08/17 15:37:37;;;;;;;7.07;2.95;;;;;;;;;;4377744;32;20536;-68
2022/08/17 15:40:05;;;;;;;7.82;3.20;;;;;;;;;;4380455;32;20097;-68
2022/08/17 15:42:34;;;;;;;9.30;3.45;;;;;;;;;;4367441;32;20085;-68
2022/08/17 15:45:12;;;;;;;10.07;3.22;;;;;;;;;;4368097;32;20174;-69